Aviation Digital Data Service (ADDS)

Output produced by TAFs form (0157 UTC 22 January 2017)
found at http://www.aviationweather.gov/adds/tafs/
 
KAPA 220153Z 32003KT 10SM BKN080 BKN180 01/M04 A2954 RMK AO2 SLP028 T00111044
KAPA 212340Z 2200/2224 34007KT P6SM FEW080 SCT130 BKN200 
     FM220200 33008KT P6SM SCT070 BKN100 
     FM220300 30009KT P6SM VCSH SCT050 BKN070 OVC100 
     FM220600 24007KT P6SM SCT070 BKN140 
     FM221400 20006KT P6SM FEW140 SCT220 
     FM221800 16008KT P6SM FEW220 
     FM222300 13012KT P6SM SCT080 SCT130 BKN220